»·PEaware :: SAS1960 KLAX-KLAX

SAS1960 :: KLAX-KLAX

FLIGHT INFORMATION

Flight Status: Arrived
Operator:
SAS
More flights by this operator :: More flights under this callsign
Pilot: Jason B. (2095)
Aircraft: BOEING 737-700
(B737)
More flights by this aircraft type
Origin: KLAX Los Angeles Intl
United States
Destination: KLAX Los Angeles Intl
United States
More flights between these airports :: More routes between these airports
Route: +ILS Circuit
File this flight plan on PilotEdge
Remarks: Sample flight plan
Altitude:
(Current/Filed)
32,000ft
Speed:
(Current/Filed)
115kts
Departed: 16-Jun-13 08:43 PM
Arrived: 16-Jun-13 08:48 PM
Distance/Time
Traveled:
0nm/0:05
Distance/Time
To Go:
Arrived

Flight Plot

Page will automatically refresh every two minutes.

Flight plan parsing failed; only flown route is shown


Map Options




Map Legend


Flown Route
Filed Route
Departure Airport
Arrival Airport
Navaid (VOR, NDB)
Fix

Horizontal Profiles

Position Reports

Time Latitude Longitude Heading Altitude Ground
Speed
16-Jun-13 20:13 33.946312 -118.400106 170 118ft 0kts
16-Jun-13 20:14 33.946312 -118.400106 170 118ft 0kts
16-Jun-13 20:15 33.946312 -118.400106 170 118ft 0kts
16-Jun-13 20:16 33.945930 -118.400029 170 118ft 5kts
16-Jun-13 20:17 33.946317 -118.400094 170 118ft 0kts
16-Jun-13 20:18 33.946317 -118.400094 170 118ft 0kts
16-Jun-13 20:19 33.946317 -118.400094 170 118ft 0kts
16-Jun-13 20:20 33.946317 -118.400094 170 118ft 0kts
16-Jun-13 20:21 33.946317 -118.400094 170 118ft 0kts
16-Jun-13 20:22 33.946317 -118.400094 170 118ft 0kts
16-Jun-13 20:23 33.946317 -118.400094 170 118ft 0kts
16-Jun-13 20:24 33.946317 -118.400094 170 118ft 0kts
16-Jun-13 20:25 33.946317 -118.400094 170 118ft 0kts
16-Jun-13 20:26 33.946150 -118.400060 170 118ft 3kts
16-Jun-13 20:27 33.945356 -118.399899 170 118ft 5kts
16-Jun-13 20:28 33.945198 -118.399863 169 118ft 0kts
16-Jun-13 20:29 33.945198 -118.399863 169 118ft 0kts
16-Jun-13 20:30 33.945814 -118.399991 174 118ft 9kts
16-Jun-13 20:31 33.947591 -118.400125 163 117ft 4kts
16-Jun-13 20:32 33.948319 -118.399870 215 116ft 0kts
16-Jun-13 20:33 33.948319 -118.399870 215 115ft 0kts
16-Jun-13 20:34 33.948319 -118.399870 215 115ft 0kts
16-Jun-13 20:35 33.948319 -118.399870 215 115ft 0kts
16-Jun-13 20:36 33.948319 -118.399870 215 115ft 0kts
16-Jun-13 20:37 33.948319 -118.399870 215 115ft 0kts
16-Jun-13 20:38 33.948319 -118.399870 215 115ft 0kts
16-Jun-13 20:39 33.948209 -118.400057 278 115ft 4kts
16-Jun-13 20:40 33.948582 -118.400620 317 116ft 14kts
16-Jun-13 20:41 33.949171 -118.401356 310 118ft 0kts
16-Jun-13 20:42 33.949171 -118.401356 310 118ft 0kts
16-Jun-13 20:43 33.949882 -118.402036 278 119ft 0kts
16-Jun-13 20:44 33.948064 -118.437925 275 1668ft 207kts
16-Jun-13 20:45 33.960208 -118.527468 285 5025ft 310kts
16-Jun-13 20:46 33.989586 -118.631223 290 5147ft 385kts
16-Jun-13 20:47 34.021470 -118.719561 296 6292ft 410kts
16-Jun-13 20:48 34.057989 -118.797245 302 8156ft 402kts
16-Jun-13 20:49 33.946310 -118.400102 170 118ft 0kts
16-Jun-13 20:50 33.946310 -118.400102 170 118ft 0kts
16-Jun-13 20:51 33.946310 -118.400102 170 118ft 0kts
16-Jun-13 20:52 33.946310 -118.400102 170 118ft 0kts
16-Jun-13 20:53 33.946310 -118.400102 170 118ft 0kts
16-Jun-13 20:54 33.946310 -118.400102 170 118ft 0kts
16-Jun-13 20:55 33.946310 -118.400102 170 118ft 0kts
16-Jun-13 20:56 33.948134 -118.399987 170 115ft 8kts
16-Jun-13 20:57 33.948691 -118.399840 224 115ft 0kts
16-Jun-13 20:58 33.948037 -118.401686 275 118ft 0kts
16-Jun-13 20:59 33.947793 -118.401490 20 118ft 1kts
16-Jun-13 21:00 33.948694 -118.401212 347 117ft 18kts
16-Jun-13 21:01 33.949318 -118.401527 331 118ft 15kts
16-Jun-13 21:02 33.950109 -118.403305 270 121ft 0kts
16-Jun-13 21:03 33.949529 -118.408997 260 125ft 127kts

Navigation Log

Ident Type
Flight plan parsing failed, navigation log unavailable